createdAt,value
2023-04-10T00:00:04.253Z,32.15
2023-04-10T00:02:31.746Z,34.55
2023-04-10T00:05:00.050Z,34.20
2023-04-10T00:07:27.849Z,31.77
2023-04-10T00:09:55.356Z,35.53
2023-04-10T00:12:22.947Z,30.73
2023-04-10T00:14:50.204Z,30.73
2023-04-10T00:17:17.500Z,33.15
2023-04-10T00:19:45.281Z,33.83
2023-04-10T00:22:12.619Z,38.35
2023-04-10T00:24:39.879Z,29.65
2023-04-10T00:27:07.060Z,32.80
2023-04-10T00:29:34.554Z,37.22
2023-04-10T00:32:01.959Z,38.25
2023-04-10T00:34:29.190Z,30.15
2023-04-10T00:37:00.102Z,27.48
2023-04-10T00:39:27.348Z,31.77
2023-04-10T00:41:54.891Z,28.55
2023-04-10T00:44:22.597Z,33.53
2023-04-10T00:46:50.063Z,38.80
2023-04-10T00:49:18.782Z,30.70
2023-04-10T00:51:46.384Z,36.92
2023-04-10T00:54:13.862Z,33.25
2023-04-10T00:56:41.533Z,39.40
2023-04-10T00:59:08.947Z,31.65
2023-04-10T01:01:36.312Z,32.92
2023-04-10T01:04:04.192Z,32.60
2023-04-10T01:06:52.322Z,27.02
2023-04-10T01:09:44.223Z,32.67
2023-04-10T01:12:48.813Z,29.40
2023-04-10T01:15:26.027Z,33.13
2023-04-10T01:18:45.785Z,33.85
2023-04-10T01:21:15.993Z,34.75
2023-04-10T01:24:08.219Z,32.55
2023-04-10T01:27:07.302Z,32.63
2023-04-10T01:29:44.528Z,30.45
2023-04-10T01:32:18.492Z,31.00
2023-04-10T01:34:50.124Z,31.60
2023-04-10T01:37:31.585Z,42.40
2023-04-10T01:40:07.146Z,33.40
2023-04-10T01:42:43.220Z,37.65
2023-04-10T01:45:18.478Z,37.28
2023-04-10T01:47:46.158Z,38.55
2023-04-10T01:50:14.478Z,32.63
2023-04-10T01:52:43.131Z,33.17
2023-04-10T01:55:11.102Z,30.40
2023-04-10T01:57:38.605Z,30.23
2023-04-10T02:00:07.936Z,33.33
2023-04-10T02:02:36.094Z,36.45
2023-04-10T02:05:03.369Z,29.90
2023-04-10T02:07:52.555Z,32.22
2023-04-10T02:10:38.443Z,30.73
2023-04-10T02:13:10.528Z,29.52
2023-04-10T02:15:41.039Z,35.75
2023-04-10T02:18:11.176Z,31.40
2023-04-10T02:20:38.508Z,37.95
2023-04-10T02:23:07.014Z,32.88
2023-04-10T02:25:35.031Z,37.90
2023-04-10T02:28:06.478Z,33.72
2023-04-10T02:30:34.510Z,37.10
2023-04-10T02:33:02.362Z,37.88
2023-04-10T02:35:29.651Z,42.95
2023-04-10T02:37:56.979Z,36.10
2023-04-10T02:40:24.624Z,40.85
2023-04-10T02:42:52.010Z,39.85
2023-04-10T02:45:19.409Z,38.40
2023-04-10T02:47:46.860Z,35.97
2023-04-10T02:50:14.410Z,44.17
2023-04-10T02:52:42.202Z,38.22
2023-04-10T02:55:09.941Z,39.15
2023-04-10T02:57:37.263Z,38.00
2023-04-10T03:00:05.725Z,37.40
2023-04-10T03:02:33.063Z,44.13
2023-04-10T03:05:02.578Z,36.65
2023-04-10T03:07:29.734Z,33.20
2023-04-10T03:09:56.898Z,39.80
2023-04-10T03:12:24.270Z,32.28
2023-04-10T03:14:51.335Z,36.88
2023-04-10T03:17:19.273Z,33.30
2023-04-10T03:19:46.600Z,35.22
2023-04-10T03:22:13.838Z,39.17
2023-04-10T03:24:41.647Z,37.78
2023-04-10T03:27:08.825Z,31.52
2023-04-10T03:29:36.067Z,30.10
2023-04-10T03:32:03.712Z,34.65
2023-04-10T03:34:30.909Z,35.08
2023-04-10T03:37:00.964Z,35.58
2023-04-10T03:39:28.134Z,38.10
2023-04-10T03:41:56.590Z,35.58
2023-04-10T03:44:24.028Z,35.78
2023-04-10T03:46:51.278Z,34.47
2023-04-10T03:49:18.557Z,36.40
2023-04-10T03:51:46.667Z,31.98
2023-04-10T03:54:14.102Z,36.30
2023-04-10T03:56:41.708Z,34.10
2023-04-10T03:59:09.050Z,34.15
2023-04-10T04:01:36.269Z,35.30
2023-04-10T04:04:03.831Z,37.88
2023-04-10T04:06:31.638Z,34.45
2023-04-10T04:08:58.794Z,37.22
2023-04-10T04:11:26.038Z,49.55
2023-04-10T04:13:53.580Z,34.13
2023-04-10T04:16:21.638Z,42.88
2023-04-10T04:18:48.794Z,33.90
2023-04-10T04:21:16.288Z,36.35
2023-04-10T04:23:43.531Z,37.58
2023-04-10T04:26:10.998Z,36.13
2023-04-10T04:28:38.216Z,38.40
2023-04-10T04:31:05.861Z,36.80
2023-04-10T04:33:36.328Z,34.88
2023-04-10T04:36:03.835Z,41.65
2023-04-10T04:38:31.064Z,38.25
2023-04-10T04:40:58.560Z,40.63
2023-04-10T04:43:26.333Z,44.38
2023-04-10T04:45:53.525Z,36.70
2023-04-10T04:48:21.037Z,42.55
2023-04-10T04:50:49.060Z,39.78
2023-04-10T04:53:16.367Z,36.15
2023-04-10T04:55:43.640Z,38.50
2023-04-10T04:58:11.079Z,39.08
2023-04-10T05:00:38.317Z,51.42
2023-04-10T05:03:07.313Z,36.38
2023-04-10T05:05:34.765Z,43.17
2023-04-10T05:08:02.169Z,41.75
2023-04-10T05:10:29.517Z,38.53
2023-04-10T05:12:56.878Z,40.00
2023-04-10T05:15:25.070Z,41.92
2023-04-10T05:17:53.390Z,36.20
2023-04-10T05:20:25.328Z,36.35
2023-04-10T05:22:53.500Z,38.08
2023-04-10T05:25:21.148Z,46.70
2023-04-10T05:27:48.365Z,37.83
2023-04-10T05:30:15.807Z,49.05
2023-04-10T05:32:43.401Z,42.40
2023-04-10T05:35:10.503Z,49.42
2023-04-10T05:37:37.914Z,44.30
2023-04-10T05:40:05.812Z,49.05
2023-04-10T05:42:33.154Z,41.33
2023-04-10T05:45:00.375Z,38.05
2023-04-10T05:47:27.574Z,42.13
2023-04-10T05:49:55.110Z,40.33
2023-04-10T05:52:25.298Z,51.10
2023-04-10T05:54:52.546Z,48.58
2023-04-10T05:57:19.765Z,39.10
2023-04-10T05:59:46.998Z,43.65
2023-04-10T06:02:14.295Z,42.08
2023-04-10T06:04:41.737Z,38.15
2023-04-10T06:07:09.175Z,46.45
2023-04-10T06:09:36.360Z,40.83
2023-04-10T06:12:03.535Z,45.65
2023-04-10T06:14:30.766Z,38.45
2023-04-10T06:17:00.655Z,44.55
2023-04-10T06:19:28.009Z,41.78
2023-04-10T06:21:55.264Z,39.70
2023-04-10T06:24:25.897Z,41.17
2023-04-10T06:26:53.207Z,39.05
2023-04-10T06:29:20.468Z,47.13
2023-04-10T06:31:47.606Z,39.90
2023-04-10T06:34:14.780Z,38.90
2023-04-10T06:36:41.907Z,37.80
2023-04-10T06:39:09.404Z,39.92
2023-04-10T06:41:36.542Z,30.17
2023-04-10T06:44:03.929Z,35.97
2023-04-10T06:46:31.074Z,34.50
2023-04-10T06:49:01.415Z,26.75
2023-04-10T06:51:28.718Z,35.30
2023-04-10T06:53:56.475Z,28.80
2023-04-10T06:56:23.676Z,33.35
2023-04-10T06:58:50.916Z,32.60
2023-04-10T07:01:18.436Z,38.45
2023-04-10T07:03:46.013Z,31.45
2023-04-10T07:06:13.777Z,34.47
2023-04-10T07:08:41.726Z,29.33
2023-04-10T07:11:08.828Z,35.72
2023-04-10T07:13:39.119Z,30.25
2023-04-10T07:16:08.545Z,27.15
2023-04-10T07:18:38.751Z,28.13
2023-04-10T07:21:14.647Z,31.33
2023-04-10T07:23:41.965Z,31.83
2023-04-10T07:26:09.342Z,33.50
2023-04-10T07:28:37.056Z,34.30
2023-04-10T07:31:04.464Z,28.70
2023-04-10T07:33:31.747Z,31.65
2023-04-10T07:35:58.974Z,33.55
2023-04-10T07:38:27.576Z,33.38
2023-04-10T07:40:58.556Z,30.83
2023-04-10T07:43:26.943Z,36.38
2023-04-10T07:45:54.262Z,31.08
2023-04-10T07:48:21.707Z,31.40
2023-04-10T07:50:49.109Z,27.58
2023-04-10T07:53:16.295Z,29.00
2023-04-10T07:55:45.249Z,27.10
2023-04-10T07:58:12.582Z,28.33
2023-04-10T08:00:39.848Z,25.15
2023-04-10T08:03:07.945Z,25.88
2023-04-10T08:05:35.320Z,33.78
2023-04-10T08:08:02.585Z,24.50
2023-04-10T08:10:29.927Z,24.40
2023-04-10T08:12:57.327Z,27.83
2023-04-10T08:15:24.528Z,26.33
2023-04-10T08:17:51.686Z,23.90
2023-04-10T08:20:18.909Z,24.38
2023-04-10T08:22:46.337Z,27.75
2023-04-10T08:25:13.581Z,26.35
2023-04-10T08:27:40.881Z,24.73
2023-04-10T08:30:08.567Z,23.30
2023-04-10T08:32:36.813Z,21.13
2023-04-10T08:35:04.328Z,22.73
2023-04-10T08:37:32.601Z,20.90
2023-04-10T08:39:59.698Z,23.15
2023-04-10T08:42:27.671Z,26.88
2023-04-10T08:44:54.959Z,19.50
2023-04-10T08:47:23.690Z,20.85
2023-04-10T08:49:58.522Z,21.33
2023-04-10T08:52:26.819Z,20.75
2023-04-10T08:54:58.813Z,21.23
2023-04-10T08:57:27.622Z,18.77
2023-04-10T08:59:54.898Z,19.83
2023-04-10T09:02:26.143Z,17.90
2023-04-10T09:04:55.542Z,16.80
2023-04-10T09:07:23.708Z,18.85
2023-04-10T09:09:51.012Z,18.13
2023-04-10T09:12:18.423Z,16.45
2023-04-10T09:14:45.779Z,13.05
2023-04-10T09:17:25.541Z,14.85
2023-04-10T09:19:55.721Z,15.38
2023-04-10T09:22:34.485Z,14.32
2023-04-10T09:25:03.351Z,11.20
2023-04-10T09:27:38.744Z,10.95
2023-04-10T09:32:43.010Z,15.98
2023-04-10T09:35:12.489Z,11.45
2023-04-10T09:37:43.360Z,12.70
2023-04-10T09:40:25.053Z,12.63
2023-04-10T09:42:56.422Z,18.10
2023-04-10T09:45:23.897Z,10.20
2023-04-10T09:48:08.828Z,11.13
2023-04-10T09:50:41.361Z,12.10
2023-04-10T09:53:17.332Z,9.52
2023-04-10T09:55:44.593Z,9.38
2023-04-10T09:58:12.233Z,9.88
2023-04-10T10:00:44.293Z,10.15
2023-04-10T10:03:17.414Z,9.95
2023-04-10T10:05:46.860Z,11.48
2023-04-10T10:08:15.652Z,12.23
2023-04-10T10:10:54.695Z,10.52
2023-04-10T10:13:32.142Z,11.82
2023-04-10T10:16:19.394Z,9.10
2023-04-10T10:18:54.901Z,11.05
2023-04-10T10:21:23.950Z,7.40
2023-04-10T10:23:54.414Z,10.07
2023-04-10T10:26:23.857Z,9.90
2023-04-10T10:28:55.303Z,12.32
2023-04-10T10:31:24.536Z,8.43
2023-04-10T10:33:53.452Z,8.63
2023-04-10T10:36:22.119Z,9.27
2023-04-10T10:39:00.303Z,10.60
2023-04-10T10:41:38.947Z,8.40
2023-04-10T10:44:21.820Z,10.57
2023-04-10T10:46:52.836Z,11.07
2023-04-10T10:49:20.125Z,5.38
2023-04-10T10:51:49.448Z,6.82
2023-04-10T10:54:42.281Z,8.57
2023-04-10T10:57:54.893Z,7.22
2023-04-10T11:00:23.976Z,8.77
2023-04-10T11:03:12.532Z,9.10
2023-04-10T11:06:12.496Z,9.25
2023-04-10T11:08:46.086Z,7.85
2023-04-10T11:11:27.666Z,8.68
2023-04-10T11:14:00.724Z,11.25
2023-04-10T11:16:32.178Z,8.48
2023-04-10T11:19:14.851Z,8.48
2023-04-10T11:22:08.735Z,8.65
2023-04-10T11:24:57.719Z,8.80
2023-04-10T11:27:47.048Z,10.63
2023-04-10T11:30:34.658Z,36.42
2023-04-10T11:33:04.081Z,7.53
2023-04-10T11:35:32.362Z,10.00
2023-04-10T11:38:16.194Z,8.55
2023-04-10T11:40:57.693Z,6.75
2023-04-10T11:43:25.007Z,6.65
2023-04-10T11:46:08.827Z,7.95
2023-04-10T11:48:37.816Z,9.80
2023-04-10T11:51:12.202Z,8.60
2023-04-10T11:53:40.462Z,8.43
2023-04-10T11:56:22.316Z,10.68
2023-04-10T11:58:54.882Z,8.55
2023-04-10T12:01:23.049Z,10.25
2023-04-10T12:03:50.840Z,8.93
2023-04-10T12:06:19.901Z,6.85
2023-04-10T12:08:51.706Z,6.65
2023-04-10T12:11:25.468Z,8.50
2023-04-10T12:13:56.668Z,7.30
2023-04-10T12:16:25.611Z,6.35
2023-04-10T12:18:53.650Z,5.55
2023-04-10T12:21:21.752Z,5.68
2023-04-10T12:23:48.922Z,8.13
2023-04-10T12:26:23.600Z,5.60
2023-04-10T12:28:56.267Z,8.25
2023-04-10T12:31:35.015Z,5.80
2023-04-10T12:34:03.572Z,4.70
2023-04-10T12:36:34.615Z,6.28
2023-04-10T12:39:04.712Z,5.47
2023-04-10T12:41:34.360Z,6.10
2023-04-10T12:44:14.765Z,5.00
2023-04-10T12:46:43.573Z,7.32
2023-04-10T12:49:14.106Z,5.50
2023-04-10T12:51:52.156Z,4.38
2023-04-10T12:54:33.673Z,4.95
2023-04-10T12:57:01.645Z,4.15
2023-04-10T12:59:30.330Z,3.63
2023-04-10T13:01:57.862Z,3.75
2023-04-10T13:04:25.989Z,2.72
2023-04-10T13:06:53.575Z,4.38
2023-04-10T13:09:21.489Z,8.10
2023-04-10T13:11:50.991Z,4.10
2023-04-10T13:14:19.128Z,10.38
2023-04-10T13:16:47.319Z,6.22
2023-04-10T13:19:15.866Z,3.13
2023-04-10T13:21:43.133Z,6.22
2023-04-10T13:24:10.616Z,4.25
2023-04-10T13:26:37.828Z,5.57
2023-04-10T13:29:07.396Z,6.40
2023-04-10T13:31:34.711Z,4.13
2023-04-10T13:34:02.181Z,6.50
2023-04-10T13:36:29.795Z,7.00
2023-04-10T13:38:57.336Z,5.47
2023-04-10T13:41:24.848Z,5.25
2023-04-10T13:43:52.184Z,7.97
2023-04-10T13:46:19.423Z,4.70
2023-04-10T13:48:47.088Z,6.90
2023-04-10T13:51:14.267Z,8.13
2023-04-10T13:53:41.592Z,7.50
2023-04-10T13:56:09.654Z,7.03
2023-04-10T13:58:36.879Z,4.82
2023-04-10T14:01:04.314Z,5.82
2023-04-10T14:03:31.494Z,6.38
2023-04-10T14:05:58.899Z,7.63
2023-04-10T14:08:26.215Z,6.05
2023-04-10T14:10:56.148Z,4.15
2023-04-10T14:13:23.345Z,3.38
2023-04-10T14:15:52.343Z,8.70
2023-04-10T14:18:20.165Z,5.03
2023-04-10T14:20:49.128Z,7.47
2023-04-10T14:23:19.371Z,7.03
2023-04-10T14:25:48.248Z,8.57
2023-04-10T14:28:20.856Z,6.03
2023-04-10T14:30:52.170Z,17.38
2023-04-10T14:33:20.157Z,6.43
2023-04-10T14:35:47.855Z,5.97
2023-04-10T14:38:16.112Z,8.20
2023-04-10T14:40:48.898Z,5.55
2023-04-10T14:43:16.358Z,6.53
2023-04-10T14:45:43.774Z,7.45
2023-04-10T14:48:12.986Z,5.20
2023-04-10T14:50:40.808Z,5.20
2023-04-10T14:53:10.168Z,6.60
2023-04-10T14:55:37.923Z,6.28
2023-04-10T14:58:07.087Z,7.95
2023-04-10T15:00:34.885Z,9.18
2023-04-10T15:03:02.306Z,9.18
2023-04-10T15:05:30.692Z,7.10
2023-04-10T15:07:58.167Z,6.82
2023-04-10T15:10:26.285Z,13.43
2023-04-10T15:12:53.674Z,6.85
2023-04-10T15:15:20.960Z,5.93
2023-04-10T15:17:48.516Z,9.07
2023-04-10T15:20:15.878Z,8.02
2023-04-10T15:22:43.665Z,5.85
2023-04-10T15:25:13.999Z,8.35
2023-04-10T15:27:42.020Z,6.65
2023-04-10T15:30:09.710Z,8.63
2023-04-10T15:32:38.777Z,8.20
2023-04-10T15:35:07.215Z,8.82
2023-04-10T15:37:36.860Z,9.38
2023-04-10T15:40:07.953Z,7.63
2023-04-10T15:42:42.129Z,8.18
2023-04-10T15:45:09.833Z,8.65
2023-04-10T15:47:39.453Z,7.65
2023-04-10T15:50:10.916Z,9.65
2023-04-10T15:52:38.083Z,8.55
2023-04-10T15:55:06.784Z,8.68
2023-04-10T16:05:35.835Z,14.10
2023-04-10T16:08:06.243Z,8.63
2023-04-10T16:10:37.670Z,7.10
2023-04-10T16:13:07.464Z,25.98
2023-04-10T16:15:36.955Z,7.78
2023-04-10T16:18:07.325Z,6.35
2023-04-10T16:20:35.234Z,8.55
2023-04-10T16:23:02.672Z,8.48
2023-04-10T16:25:30.992Z,9.68
2023-04-10T16:27:58.631Z,10.07
2023-04-10T16:30:26.213Z,9.32
2023-04-10T16:32:53.853Z,8.60
2023-04-10T16:35:22.719Z,7.38
2023-04-10T16:37:50.364Z,10.30
2023-04-10T16:40:19.109Z,12.05
2023-04-10T16:42:46.280Z,5.43
2023-04-10T16:45:14.373Z,6.63
2023-04-10T16:47:42.437Z,10.15
2023-04-10T16:50:10.113Z,7.28
2023-04-10T16:52:37.615Z,7.53
2023-04-10T16:55:05.130Z,13.50
2023-04-10T16:57:33.377Z,7.22
2023-04-10T17:00:00.985Z,6.88
2023-04-10T17:02:29.945Z,8.43
2023-04-10T17:04:57.907Z,7.32
2023-04-10T17:07:25.240Z,7.63
2023-04-10T17:09:52.592Z,7.60
2023-04-10T17:12:19.822Z,9.40
2023-04-10T17:14:47.189Z,8.73
2023-04-10T17:17:14.452Z,9.77
2023-04-10T17:19:41.886Z,9.18
2023-04-10T17:22:16.410Z,8.98
2023-04-10T17:24:46.434Z,8.37
2023-04-10T17:27:14.217Z,7.43
2023-04-10T17:29:41.748Z,11.82
2023-04-10T17:32:12.285Z,7.70
2023-04-10T17:34:42.870Z,10.75
2023-04-10T17:37:09.991Z,8.82
2023-04-10T17:39:37.615Z,8.43
2023-04-10T17:42:04.888Z,10.50
2023-04-10T17:44:32.462Z,7.20
2023-04-10T17:46:59.754Z,7.65
2023-04-10T17:49:27.476Z,7.10
2023-04-10T17:51:57.353Z,8.15
2023-04-10T17:54:24.540Z,10.50
2023-04-10T17:56:54.830Z,9.05
2023-04-10T17:59:21.966Z,10.45
2023-04-10T18:01:49.379Z,10.23
2023-04-10T18:04:16.863Z,11.02
2023-04-10T18:06:44.114Z,6.72
2023-04-10T18:09:11.798Z,26.30
2023-04-10T18:11:40.723Z,18.30
2023-04-10T18:14:08.265Z,80.38
2023-04-10T18:16:35.873Z,31.25
2023-04-10T18:19:03.466Z,11.30
2023-04-10T18:21:31.852Z,8.13
2023-04-10T18:23:59.413Z,8.00
2023-04-10T18:26:29.889Z,8.23
2023-04-10T18:29:00.905Z,7.18
2023-04-10T18:31:28.512Z,7.05
2023-04-10T18:34:07.243Z,6.93
2023-04-10T18:36:35.811Z,8.45
2023-04-10T18:39:06.320Z,8.48
2023-04-10T18:41:34.016Z,13.88
2023-04-10T18:44:05.493Z,9.25
2023-04-10T18:46:33.561Z,8.68
2023-04-10T18:49:01.543Z,7.95
2023-04-10T18:51:29.149Z,7.57
2023-04-10T18:53:56.596Z,7.97
2023-04-10T18:56:23.999Z,9.38
2023-04-10T18:58:51.149Z,11.73
2023-04-10T19:01:18.847Z,7.43
2023-04-10T19:03:52.934Z,17.15
2023-04-10T19:06:24.256Z,8.98
2023-04-10T19:08:52.143Z,18.42
2023-04-10T19:11:19.328Z,8.15
2023-04-10T19:13:46.523Z,9.57
2023-04-10T19:16:17.392Z,8.63
2023-04-10T19:18:44.816Z,9.48
2023-04-10T19:21:12.207Z,9.55
2023-04-10T19:23:39.570Z,8.82
2023-04-10T19:26:08.313Z,10.30
2023-04-10T19:28:35.540Z,8.82
2023-04-10T19:31:02.763Z,12.05
2023-04-10T19:33:30.429Z,7.68
2023-04-10T19:35:58.867Z,8.55
2023-04-10T19:38:29.416Z,9.93
2023-04-10T19:40:56.737Z,9.30
2023-04-10T19:43:24.037Z,8.70
2023-04-10T19:45:53.318Z,8.85
2023-04-10T19:48:21.048Z,9.45
2023-04-10T19:50:48.161Z,12.60
2023-04-10T19:53:15.914Z,10.82
2023-04-10T19:55:45.019Z,8.98
2023-04-10T19:58:30.470Z,8.43
2023-04-10T20:01:07.301Z,9.55
2023-04-10T20:03:36.012Z,11.20
2023-04-10T20:06:05.032Z,7.95
2023-04-10T20:08:32.235Z,14.13
2023-04-10T20:10:59.594Z,11.48
2023-04-10T20:13:26.954Z,11.85
2023-04-10T20:15:54.797Z,13.70
2023-04-10T20:18:22.108Z,7.30
2023-04-10T20:20:49.250Z,11.07
2023-04-10T20:23:16.302Z,9.35
2023-04-10T20:25:44.330Z,7.75
2023-04-10T20:28:11.989Z,21.80
2023-04-10T20:30:44.289Z,12.60
2023-04-10T20:33:12.401Z,11.63
2023-04-10T20:35:40.083Z,10.50
2023-04-10T20:38:07.449Z,9.57
2023-04-10T20:40:36.071Z,8.32
2023-04-10T20:43:03.450Z,9.65
2023-04-10T20:45:30.565Z,9.07
2023-04-10T20:47:58.126Z,7.97
2023-04-10T20:50:26.138Z,12.60
2023-04-10T20:52:53.734Z,8.07
2023-04-10T20:55:21.319Z,8.18
2023-04-10T20:57:48.473Z,8.15
2023-04-10T21:00:16.174Z,8.73
2023-04-10T21:02:43.502Z,10.32
2023-04-10T21:05:12.130Z,7.90
2023-04-10T21:07:39.651Z,9.85
2023-04-10T21:10:07.202Z,5.57
2023-04-10T21:12:34.459Z,7.80
2023-04-10T21:15:01.901Z,6.38
2023-04-10T21:17:31.635Z,8.60
2023-04-10T21:19:59.786Z,8.80
2023-04-10T21:22:29.242Z,6.78
2023-04-10T21:24:58.206Z,6.82
2023-04-10T21:27:25.378Z,7.47
2023-04-10T21:29:52.671Z,5.85
2023-04-10T21:32:20.685Z,13.95
2023-04-10T21:34:48.322Z,19.48
2023-04-10T21:37:15.541Z,6.43
2023-04-10T21:39:42.963Z,6.65
2023-04-10T21:42:10.091Z,8.05
2023-04-10T21:44:37.829Z,8.57
2023-04-10T21:47:05.041Z,7.03
2023-04-10T21:49:32.180Z,9.35
2023-04-10T21:51:59.542Z,5.72
2023-04-10T21:54:26.927Z,8.40
2023-04-10T21:56:54.075Z,7.10
2023-04-10T21:59:21.441Z,4.90
2023-04-10T22:01:49.175Z,6.25
2023-04-10T22:04:16.661Z,7.10
2023-04-10T22:06:44.089Z,6.05
2023-04-10T22:09:11.410Z,6.72
2023-04-10T22:11:39.367Z,5.38
2023-04-10T22:14:16.116Z,7.47
2023-04-10T22:16:45.516Z,5.53
2023-04-10T22:19:12.940Z,6.00
2023-04-10T22:21:40.178Z,7.20
2023-04-10T22:24:07.719Z,5.43
2023-04-10T22:26:35.698Z,7.95
2023-04-10T22:29:04.147Z,6.05
2023-04-10T22:31:32.190Z,6.13
2023-04-10T22:33:59.544Z,9.13
2023-04-10T22:36:33.891Z,6.53
2023-04-10T22:39:01.390Z,8.25
2023-04-10T22:41:29.758Z,6.00
2023-04-10T22:43:56.798Z,11.15
2023-04-10T22:46:24.116Z,4.97
2023-04-10T22:48:51.694Z,6.47
2023-04-10T22:51:19.189Z,6.32
2023-04-10T22:53:46.494Z,8.25
2023-04-10T22:56:14.032Z,11.07
2023-04-10T22:58:41.659Z,8.75
2023-04-10T23:01:10.652Z,7.47
2023-04-10T23:03:38.772Z,6.18
2023-04-10T23:06:06.259Z,6.45
2023-04-10T23:08:33.493Z,6.88
2023-04-10T23:11:00.891Z,6.72
2023-04-10T23:13:28.201Z,5.63
2023-04-10T23:15:56.567Z,4.97
2023-04-10T23:18:23.826Z,5.80
2023-04-10T23:20:51.927Z,5.40
2023-04-10T23:23:19.395Z,6.50
2023-04-10T23:25:47.780Z,6.57
2023-04-10T23:28:15.207Z,6.50
2023-04-10T23:30:43.059Z,6.65
2023-04-10T23:33:10.296Z,5.70
2023-04-10T23:35:37.441Z,5.72
2023-04-10T23:38:04.687Z,6.18
2023-04-10T23:40:32.426Z,5.88
2023-04-10T23:42:59.689Z,5.93
2023-04-10T23:45:27.276Z,13.15
2023-04-10T23:47:54.554Z,7.60
2023-04-10T23:50:21.723Z,7.22
2023-04-10T23:52:50.624Z,6.50
2023-04-10T23:55:18.760Z,5.45
2023-04-10T23:57:46.148Z,11.20
